createdAt,value
2022-08-05T00:02:22.244Z,24.13
2022-08-05T00:04:55.165Z,24.01
2022-08-05T00:07:59.068Z,24.01
2022-08-05T00:10:10.668Z,24.11
2022-08-05T00:12:48.454Z,24.08
2022-08-05T00:15:56.413Z,24.01
2022-08-05T00:18:21.776Z,24.05
2022-08-05T00:20:50.615Z,23.96
2022-08-05T00:23:17.883Z,23.97
2022-08-05T00:26:05.118Z,23.76
2022-08-05T00:28:32.957Z,24.07
2022-08-05T00:31:04.248Z,24.15
2022-08-05T00:34:56.562Z,23.87
2022-08-05T00:37:11.836Z,23.69
2022-08-05T00:39:13.751Z,23.66
2022-08-05T00:41:51.460Z,23.72
2022-08-05T00:44:19.183Z,23.85
2022-08-05T00:46:47.723Z,23.76
2022-08-05T00:49:21.144Z,23.44
2022-08-05T00:51:51.992Z,23.39
2022-08-05T00:54:19.129Z,23.26
2022-08-05T00:56:51.404Z,23.15
2022-08-05T00:59:18.439Z,23.33
2022-08-05T01:01:48.718Z,23.31
2022-08-05T01:04:16.116Z,22.93
2022-08-05T01:06:48.571Z,22.98
2022-08-05T01:09:17.294Z,23.08
2022-08-05T01:11:49.955Z,23.22
2022-08-05T01:14:27.788Z,22.94
2022-08-05T01:17:02.698Z,22.62
2022-08-05T01:20:01.940Z,22.72
2022-08-05T01:22:38.309Z,22.31
2022-08-05T01:25:40.866Z,22.48
2022-08-05T01:28:16.867Z,22.75
2022-08-05T01:30:55.375Z,22.63
2022-08-05T01:33:35.337Z,22.73
2022-08-05T01:36:12.850Z,22.82
2022-08-05T01:38:46.281Z,22.72
2022-08-05T01:41:18.466Z,22.66
2022-08-05T01:43:51.107Z,22.71
2022-08-05T01:46:43.161Z,22.82
2022-08-05T01:49:23.011Z,22.59
2022-08-05T01:51:56.547Z,22.37
2022-08-05T01:54:30.188Z,22.55
2022-08-05T01:58:12.973Z,22.10
2022-08-05T01:59:48.487Z,22.23
2022-08-05T02:02:17.917Z,22.13
2022-08-05T02:04:49.615Z,22.10
2022-08-05T02:07:22.098Z,22.25
2022-08-05T02:09:51.008Z,22.16
2022-08-05T02:12:36.147Z,22.37
2022-08-05T02:15:34.080Z,22.38
2022-08-05T02:18:31.053Z,22.39
2022-08-05T02:21:03.678Z,22.33
2022-08-05T02:23:38.115Z,22.21
2022-08-05T02:26:09.458Z,22.08
2022-08-05T02:28:46.048Z,21.67
2022-08-05T02:31:21.205Z,21.85
2022-08-05T02:33:57.224Z,21.92
2022-08-05T02:36:27.564Z,21.75
2022-08-05T02:38:58.775Z,21.72
2022-08-05T02:41:28.583Z,21.78
2022-08-05T02:44:13.327Z,21.70
2022-08-05T02:46:58.563Z,21.75
2022-08-05T02:49:35.955Z,21.90
2022-08-05T02:52:08.025Z,21.42
2022-08-05T02:54:37.456Z,21.63
2022-08-05T02:57:10.290Z,21.81
2022-08-05T02:59:55.496Z,21.81
2022-08-05T03:02:27.644Z,21.73
2022-08-05T03:04:57.588Z,21.64
2022-08-05T03:08:00.647Z,21.80
2022-08-05T03:10:16.096Z,21.20
2022-08-05T03:12:52.546Z,21.65
2022-08-05T03:15:20.794Z,21.49
2022-08-05T03:17:49.936Z,21.47
2022-08-05T03:20:21.266Z,21.71
2022-08-05T03:22:50.476Z,21.60
2022-08-05T03:25:32.612Z,21.43
2022-08-05T03:28:02.561Z,21.40
2022-08-05T03:30:35.015Z,21.70
2022-08-05T03:33:03.936Z,21.72
2022-08-05T03:35:41.269Z,21.46
2022-08-05T03:38:11.731Z,21.63
2022-08-05T03:40:48.572Z,21.62
2022-08-05T03:44:09.598Z,21.50
2022-08-05T03:46:04.630Z,21.60
2022-08-05T03:48:35.637Z,21.70
2022-08-05T03:52:38.246Z,21.48
2022-08-05T03:55:52.581Z,21.42
2022-08-05T03:57:22.016Z,21.44
2022-08-05T04:00:11.057Z,21.53
2022-08-05T04:02:45.219Z,21.41
2022-08-05T04:05:26.068Z,21.23
2022-08-05T04:07:58.610Z,21.12
2022-08-05T04:10:31.958Z,21.50
2022-08-05T04:13:00.648Z,22.16
2022-08-05T04:15:33.141Z,22.67
2022-08-05T04:18:06.655Z,23.23
2022-08-05T04:20:34.379Z,24.05
2022-08-05T04:23:01.747Z,24.66
2022-08-05T04:25:58.047Z,25.15
2022-08-05T04:28:15.447Z,25.69
2022-08-05T04:30:44.434Z,26.19
2022-08-05T04:33:12.674Z,26.80
2022-08-05T04:36:15.723Z,27.47
2022-08-05T04:38:39.926Z,27.84
2022-08-05T04:41:10.087Z,28.14
2022-08-05T04:43:48.214Z,28.97
2022-08-05T04:46:27.837Z,29.44
2022-08-05T04:48:58.006Z,30.09
2022-08-05T04:51:25.757Z,30.34
2022-08-05T04:53:57.196Z,30.39
2022-08-05T04:56:34.467Z,30.96
2022-08-05T04:59:22.117Z,31.47
2022-08-05T05:02:07.136Z,31.75
2022-08-05T05:04:35.292Z,32.25
2022-08-05T05:07:05.318Z,32.57
2022-08-05T05:09:37.476Z,32.87
2022-08-05T05:12:06.263Z,33.01
2022-08-05T05:14:33.296Z,33.35
2022-08-05T05:17:03.708Z,33.66
2022-08-05T05:19:36.992Z,33.51
2022-08-05T05:22:22.936Z,33.50
2022-08-05T05:24:57.373Z,33.55
2022-08-05T05:27:45.867Z,34.19
2022-08-05T05:30:29.751Z,33.98
2022-08-05T05:33:00.446Z,34.54
2022-08-05T05:35:34.244Z,34.76
2022-08-05T05:38:09.150Z,35.20
2022-08-05T05:40:42.527Z,35.56
2022-08-05T05:43:15.172Z,35.89
2022-08-05T05:45:49.577Z,36.08
2022-08-05T05:48:16.504Z,36.27
2022-08-05T05:50:44.535Z,36.41
2022-08-05T05:53:22.247Z,36.46
2022-08-05T05:55:51.549Z,36.77
2022-08-05T05:58:31.568Z,36.71
2022-08-05T06:01:02.575Z,37.03
2022-08-05T06:04:01.100Z,37.23
2022-08-05T06:06:31.190Z,37.13
2022-08-05T06:09:00.572Z,37.56
2022-08-05T06:11:29.022Z,37.56
2022-08-05T06:13:56.930Z,37.73
2022-08-05T06:16:28.692Z,37.79
2022-08-05T06:19:01.839Z,37.84
2022-08-05T06:21:37.105Z,37.93
2022-08-05T06:24:11.750Z,38.00
2022-08-05T06:26:51.703Z,38.28
2022-08-05T06:29:25.364Z,38.17
2022-08-05T06:32:06.028Z,37.93
2022-08-05T06:34:53.419Z,37.91
2022-08-05T06:37:57.083Z,38.20
2022-08-05T06:40:08.296Z,38.06
2022-08-05T06:42:35.176Z,36.99
2022-08-05T06:45:05.524Z,36.72
2022-08-05T06:48:36.174Z,36.75
2022-08-05T06:50:22.450Z,36.10
2022-08-05T06:52:58.770Z,35.85
2022-08-05T06:55:36.216Z,35.70
2022-08-05T06:58:20.274Z,35.88
2022-08-05T07:00:51.841Z,35.42
2022-08-05T07:03:19.338Z,35.08
2022-08-05T07:05:46.562Z,34.51
2022-08-05T07:08:13.685Z,34.79
2022-08-05T07:10:52.977Z,34.65
2022-08-05T07:13:57.668Z,34.35
2022-08-05T07:18:01.492Z,34.13
2022-08-05T07:20:31.286Z,34.04
2022-08-05T07:22:30.152Z,34.23
2022-08-05T07:25:22.994Z,34.20
2022-08-05T07:27:58.585Z,34.59
2022-08-05T07:30:39.854Z,35.30
2022-08-05T07:33:16.087Z,35.77
2022-08-05T07:36:05.298Z,35.85
2022-08-05T07:38:33.977Z,36.21
2022-08-05T07:42:08.288Z,36.44
2022-08-05T07:43:58.486Z,36.58
2022-08-05T07:46:27.337Z,37.26
2022-08-05T07:49:02.568Z,37.96
2022-08-05T07:51:37.044Z,38.46
2022-08-05T07:54:08.507Z,38.03
2022-08-05T07:57:02.612Z,38.74
2022-08-05T07:59:38.202Z,39.15
2022-08-05T08:02:16.231Z,39.68
2022-08-05T08:04:48.661Z,40.16
2022-08-05T08:07:22.715Z,40.52
2022-08-05T08:09:52.428Z,40.84
2022-08-05T08:12:37.547Z,41.02
2022-08-05T08:15:15.438Z,41.40
2022-08-05T08:17:50.721Z,41.05
2022-08-05T08:27:13.761Z,41.01
2022-08-05T08:30:05.639Z,40.96
2022-08-05T08:32:39.855Z,41.24
2022-08-05T08:35:13.399Z,41.60
2022-08-05T08:37:47.087Z,41.40
2022-08-05T08:40:20.586Z,41.68
2022-08-05T08:42:52.755Z,42.26
2022-08-05T08:45:26.685Z,42.55
2022-08-05T08:48:10.497Z,42.74
2022-08-05T08:51:22.350Z,42.77
2022-08-05T08:53:40.343Z,43.23
2022-08-05T08:56:12.056Z,43.45
2022-08-05T08:58:44.392Z,43.43
2022-08-05T09:01:16.876Z,43.67
2022-08-05T09:03:57.219Z,44.18
2022-08-05T09:06:28.538Z,44.25
2022-08-05T09:08:59.388Z,44.73
2022-08-05T09:11:52.141Z,44.60
2022-08-05T09:14:56.768Z,45.05
2022-08-05T09:17:08.187Z,45.06
2022-08-05T09:19:55.119Z,44.92
2022-08-05T09:22:31.798Z,44.91
2022-08-05T09:25:23.858Z,44.90
2022-08-05T09:28:04.272Z,44.50
2022-08-05T09:30:34.498Z,44.94
2022-08-05T09:33:02.692Z,45.54
2022-08-05T09:35:32.798Z,45.42
2022-08-05T09:38:12.093Z,45.56
2022-08-05T09:40:53.540Z,45.63
2022-08-05T09:43:40.950Z,45.06
2022-08-05T09:46:27.569Z,44.82
2022-08-05T09:49:08.226Z,44.70
2022-08-05T09:51:49.366Z,45.04
2022-08-05T09:54:29.008Z,44.63
2022-08-05T09:56:57.680Z,44.85
2022-08-05T09:59:29.221Z,45.31
2022-08-05T10:02:02.393Z,45.30
2022-08-05T10:04:38.532Z,45.38
2022-08-05T10:07:20.082Z,45.60
2022-08-05T10:10:04.422Z,45.70
2022-08-05T10:12:50.823Z,45.73
2022-08-05T10:15:44.196Z,46.19
2022-08-05T10:18:22.728Z,46.36
2022-08-05T10:20:54.636Z,46.34
2022-08-05T10:23:55.289Z,46.63
2022-08-05T10:26:15.207Z,46.65
2022-08-05T10:28:46.923Z,47.07
2022-08-05T10:32:52.798Z,47.13
2022-08-05T10:34:03.747Z,47.13
2022-08-05T10:36:36.548Z,47.14
2022-08-05T10:39:10.266Z,47.03
2022-08-05T10:42:11.318Z,46.99
2022-08-05T10:44:43.534Z,46.39
2022-08-05T10:47:26.930Z,45.02
2022-08-05T10:50:33.285Z,45.58
2022-08-05T10:53:00.168Z,44.75
2022-08-05T10:55:28.087Z,41.19
2022-08-05T10:58:15.578Z,42.47
2022-08-05T11:00:48.563Z,42.23
2022-08-05T11:03:24.982Z,41.57
2022-08-05T11:06:15.032Z,42.37
2022-08-05T11:09:18.596Z,41.98
2022-08-05T11:11:54.080Z,42.79
2022-08-05T11:17:58.651Z,43.48
2022-08-05T11:20:33.447Z,43.97
2022-08-05T11:23:05.748Z,44.58
2022-08-05T11:26:05.751Z,45.01
2022-08-05T11:28:36.248Z,45.55
2022-08-05T11:31:06.295Z,45.97
2022-08-05T11:33:57.295Z,46.28
2022-08-05T11:36:47.396Z,46.69
2022-08-05T11:39:49.250Z,47.08
2022-08-05T11:42:28.024Z,47.36
2022-08-05T11:45:05.658Z,47.49
2022-08-05T11:47:48.503Z,47.06
2022-08-05T11:50:18.286Z,47.36
2022-08-05T11:52:48.383Z,47.54
2022-08-05T11:55:17.055Z,47.60
2022-08-05T11:58:10.719Z,47.58
2022-08-05T12:00:38.180Z,47.39
2022-08-05T12:03:29.105Z,47.50
2022-08-05T12:06:06.702Z,47.45
2022-08-05T12:08:51.140Z,47.59
2022-08-05T12:11:28.275Z,47.55
2022-08-05T12:14:11.458Z,47.69
2022-08-05T12:16:40.717Z,47.78
2022-08-05T12:20:26.796Z,47.73
2022-08-05T12:22:01.135Z,47.75
2022-08-05T12:24:28.604Z,47.77
2022-08-05T12:26:57.136Z,47.67
2022-08-05T12:29:26.718Z,47.46
2022-08-05T12:32:02.070Z,47.32
2022-08-05T12:34:32.337Z,47.29
2022-08-05T12:37:17.051Z,47.14
2022-08-05T12:39:51.270Z,46.93
2022-08-05T12:42:21.010Z,46.92
2022-08-05T12:44:48.359Z,46.86
2022-08-05T12:47:28.622Z,46.97
2022-08-05T12:50:04.009Z,47.04
2022-08-05T12:52:39.760Z,46.87
2022-08-05T12:55:22.100Z,46.76
2022-08-05T12:58:50.750Z,46.87
2022-08-05T13:02:02.674Z,46.52
2022-08-05T13:03:32.603Z,46.92
2022-08-05T13:06:01.399Z,46.81
2022-08-05T13:08:32.447Z,46.89
2022-08-05T13:11:02.426Z,46.36
2022-08-05T13:14:06.835Z,46.58
2022-08-05T13:16:20.317Z,46.15
2022-08-05T13:18:58.368Z,45.70
2022-08-05T13:21:27.821Z,45.81
2022-08-05T13:23:55.837Z,45.12
2022-08-05T13:26:30.077Z,45.67
2022-08-05T13:28:59.216Z,45.74
2022-08-05T13:32:02.872Z,45.95
2022-08-05T13:34:24.851Z,45.89
2022-08-05T13:36:54.261Z,46.28
2022-08-05T13:40:13.067Z,46.32
2022-08-05T13:42:14.681Z,45.71
2022-08-05T13:44:45.713Z,45.65
2022-08-05T13:47:35.447Z,45.69
2022-08-05T13:50:04.631Z,45.80
2022-08-05T13:52:35.593Z,45.69
2022-08-05T13:55:07.730Z,45.74
2022-08-05T13:57:51.506Z,45.69
2022-08-05T14:00:26.809Z,46.12
2022-08-05T14:02:57.010Z,46.10
2022-08-05T14:05:48.230Z,46.17
2022-08-05T14:08:21.403Z,44.90
2022-08-05T14:11:03.354Z,45.50
2022-08-05T14:13:41.682Z,45.35
2022-08-05T14:16:11.498Z,45.23
2022-08-05T14:18:43.477Z,45.42
2022-08-05T14:22:08.435Z,45.44
2022-08-05T14:23:57.326Z,45.53
2022-08-05T14:26:38.439Z,45.65
2022-08-05T14:29:16.180Z,45.78
2022-08-05T14:32:02.910Z,45.53
2022-08-05T14:34:35.031Z,45.21
2022-08-05T14:37:02.557Z,45.00
2022-08-05T14:39:29.690Z,44.97
2022-08-05T14:42:19.140Z,45.15
2022-08-05T14:44:45.891Z,44.75
2022-08-05T14:47:12.716Z,44.39
2022-08-05T14:49:59.621Z,44.44
2022-08-05T14:52:52.069Z,44.41
2022-08-05T14:55:15.393Z,44.36
2022-08-05T14:57:56.335Z,44.37
2022-08-05T15:00:28.006Z,44.45
2022-08-05T15:02:55.843Z,44.38
2022-08-05T15:05:30.077Z,44.37
2022-08-05T15:08:16.043Z,44.29
2022-08-05T15:10:46.053Z,44.24
2022-08-05T15:13:14.105Z,44.20
2022-08-05T15:15:55.880Z,44.27
2022-08-05T15:18:23.509Z,44.27
2022-08-05T15:20:50.327Z,44.13
2022-08-05T15:23:18.308Z,43.95
2022-08-05T15:25:53.278Z,44.02
2022-08-05T15:28:27.221Z,44.02
2022-08-05T15:30:55.281Z,43.96
2022-08-05T15:34:05.539Z,43.78
2022-08-05T15:36:17.301Z,43.67
2022-08-05T15:40:58.697Z,43.67
2022-08-05T15:41:57.218Z,43.49
2022-08-05T15:44:27.635Z,43.29
2022-08-05T15:46:55.764Z,43.15
2022-08-05T15:49:40.880Z,43.10
2022-08-05T15:52:16.385Z,42.99
2022-08-05T15:54:44.183Z,42.90
2022-08-05T15:57:11.206Z,42.68
2022-08-05T15:59:39.608Z,42.57
2022-08-05T16:02:09.794Z,42.49
2022-08-05T16:04:42.816Z,42.42
2022-08-05T16:07:10.950Z,42.17
2022-08-05T16:09:38.102Z,42.01
2022-08-05T16:12:09.207Z,41.80
2022-08-05T16:14:38.186Z,41.72
2022-08-05T16:17:05.174Z,41.56
2022-08-05T16:20:04.987Z,41.45
2022-08-05T16:22:27.470Z,41.31
2022-08-05T16:25:00.630Z,41.26
2022-08-05T16:27:47.089Z,41.06
2022-08-05T16:30:25.468Z,40.85
2022-08-05T16:32:53.441Z,40.77
2022-08-05T16:35:20.247Z,40.69
2022-08-05T16:38:16.456Z,40.53
2022-08-05T16:40:42.931Z,40.37
2022-08-05T16:43:19.077Z,40.25
2022-08-05T16:46:07.856Z,40.11
2022-08-05T16:48:35.349Z,40.04
2022-08-05T16:51:08.673Z,39.85
2022-08-05T16:54:05.421Z,39.69
2022-08-05T16:56:30.096Z,39.56
2022-08-05T16:58:58.206Z,39.37
2022-08-05T17:01:25.684Z,39.32
2022-08-05T17:03:52.558Z,39.19
2022-08-05T17:06:20.158Z,39.00
2022-08-05T17:08:53.304Z,38.61
2022-08-05T17:11:23.502Z,38.65
2022-08-05T17:14:00.162Z,38.55
2022-08-05T17:16:33.470Z,38.41
2022-08-05T17:19:01.209Z,38.25
2022-08-05T17:21:35.671Z,38.06
2022-08-05T17:24:19.522Z,38.07
2022-08-05T17:26:56.657Z,37.96
2022-08-05T17:29:33.339Z,37.75
2022-08-05T17:32:01.161Z,37.60
2022-08-05T17:34:30.055Z,37.56
2022-08-05T17:36:59.494Z,37.44
2022-08-05T17:39:33.515Z,37.45
2022-08-05T17:42:18.956Z,37.41
2022-08-05T17:44:50.545Z,37.32
2022-08-05T17:47:21.910Z,37.11
2022-08-05T17:49:51.981Z,36.90
2022-08-05T17:52:30.680Z,36.80
2022-08-05T17:54:58.118Z,36.64
2022-08-05T17:57:24.958Z,36.53
2022-08-05T18:00:04.773Z,36.30
2022-08-05T18:02:36.407Z,36.31
2022-08-05T18:05:07.670Z,36.09
2022-08-05T18:07:41.737Z,36.10
2022-08-05T18:10:11.530Z,36.01
2022-08-05T18:12:40.967Z,35.75
2022-08-05T18:15:08.766Z,35.56
2022-08-05T18:18:01.211Z,35.25
2022-08-05T18:20:29.246Z,34.75
2022-08-05T18:23:04.901Z,34.74
2022-08-05T18:25:39.227Z,34.73
2022-08-05T18:28:07.049Z,34.68
2022-08-05T18:30:40.189Z,34.72
2022-08-05T18:33:08.620Z,34.61
2022-08-05T18:36:00.723Z,34.41
2022-08-05T18:38:29.078Z,34.31
2022-08-05T18:41:57.469Z,34.19
2022-08-05T18:43:48.633Z,34.10
2022-08-05T18:46:19.834Z,34.05
2022-08-05T18:48:52.667Z,33.61
2022-08-05T18:52:02.621Z,33.47
2022-08-05T18:54:31.192Z,33.55
2022-08-05T18:57:00.901Z,33.20
2022-08-05T18:59:43.466Z,32.19
2022-08-05T19:02:28.616Z,32.28
2022-08-05T19:05:02.847Z,32.16
2022-08-05T19:07:46.575Z,31.92
2022-08-05T19:10:15.158Z,31.79
2022-08-05T19:12:43.289Z,31.65
2022-08-05T19:15:58.351Z,31.77
2022-08-05T19:18:10.342Z,31.65
2022-08-05T19:20:41.549Z,31.65
2022-08-05T19:24:03.251Z,31.55
2022-08-05T19:26:02.949Z,31.48
2022-08-05T19:28:33.127Z,31.55
2022-08-05T19:31:01.209Z,31.63
2022-08-05T19:33:35.695Z,31.56
2022-08-05T19:36:06.767Z,31.51
2022-08-05T19:38:35.615Z,31.42
2022-08-05T19:41:07.251Z,31.34
2022-08-05T19:44:06.101Z,31.32
2022-08-05T19:46:29.981Z,31.33
2022-08-05T19:49:03.474Z,31.27
2022-08-05T19:52:05.179Z,31.29
2022-08-05T19:54:29.667Z,31.15
2022-08-05T19:56:59.819Z,31.17
2022-08-05T19:59:56.297Z,30.88
2022-08-05T20:02:17.618Z,30.79
2022-08-05T20:04:46.061Z,30.71
2022-08-05T20:07:14.105Z,30.63
2022-08-05T20:09:54.490Z,30.86
2022-08-05T20:12:24.779Z,30.63
2022-08-05T20:14:53.248Z,30.12
2022-08-05T20:17:23.700Z,29.99
2022-08-05T20:19:57.058Z,30.02
2022-08-05T20:22:26.999Z,30.16
2022-08-05T20:24:54.784Z,30.12
2022-08-05T20:27:26.910Z,29.94
2022-08-05T20:29:58.211Z,29.91
2022-08-05T20:32:27.278Z,29.86
2022-08-05T20:34:54.363Z,29.85
2022-08-05T20:38:04.721Z,29.83
2022-08-05T20:40:09.444Z,29.85
2022-08-05T20:42:36.437Z,29.51
2022-08-05T20:45:04.333Z,29.76
2022-08-05T20:47:32.733Z,29.77
2022-08-05T20:50:02.033Z,29.54
2022-08-05T20:52:29.941Z,29.19
2022-08-05T20:55:54.306Z,29.32
2022-08-05T20:57:45.014Z,29.01
2022-08-05T21:00:40.743Z,29.05
2022-08-05T21:03:07.064Z,29.28
2022-08-05T21:05:47.791Z,28.92
2022-08-05T21:08:32.910Z,28.70
2022-08-05T21:11:12.135Z,28.51
2022-08-05T21:13:56.380Z,28.40
2022-08-05T21:16:30.134Z,28.28
2022-08-05T21:19:00.011Z,28.10
2022-08-05T21:21:43.870Z,28.08
2022-08-05T21:24:12.682Z,28.29
2022-08-05T21:26:41.420Z,28.29
2022-08-05T21:29:10.080Z,28.27
2022-08-05T21:31:41.158Z,28.20
2022-08-05T21:34:10.576Z,28.06
2022-08-05T21:36:38.057Z,27.94
2022-08-05T21:39:05.210Z,27.73
2022-08-05T21:41:35.465Z,27.50
2022-08-05T21:44:04.072Z,27.30
2022-08-05T21:46:34.461Z,27.35
2022-08-05T21:49:07.760Z,27.12
2022-08-05T21:52:22.856Z,27.07
2022-08-05T21:54:28.036Z,27.43
2022-08-05T21:57:29.257Z,27.37
2022-08-05T22:00:02.077Z,27.39
2022-08-05T22:02:31.789Z,27.41
2022-08-05T22:04:58.814Z,27.52
2022-08-05T22:07:40.144Z,27.28
2022-08-05T22:10:14.810Z,27.31
2022-08-05T22:12:45.019Z,27.28
2022-08-05T22:15:56.425Z,27.17
2022-08-05T22:18:05.958Z,27.21
2022-08-05T22:20:32.942Z,27.08
2022-08-05T22:23:21.540Z,27.00
2022-08-05T22:26:10.573Z,27.09
2022-08-05T22:28:38.890Z,27.12
2022-08-05T22:31:06.262Z,26.90
2022-08-05T22:33:57.106Z,27.11
2022-08-05T22:36:23.783Z,27.08
2022-08-05T22:38:52.141Z,26.73
2022-08-05T22:42:05.058Z,26.83
2022-08-05T22:44:08.534Z,26.99
2022-08-05T22:46:39.854Z,27.04
2022-08-05T22:49:23.621Z,26.96
2022-08-05T22:52:05.910Z,26.77
2022-08-05T22:54:37.622Z,26.76
2022-08-05T22:57:06.866Z,26.55
2022-08-05T22:59:46.500Z,26.45
2022-08-05T23:02:18.169Z,26.39
2022-08-05T23:04:51.531Z,26.26
2022-08-05T23:07:22.024Z,26.12
2022-08-05T23:09:57.728Z,26.17
2022-08-05T23:12:32.374Z,26.07
2022-08-05T23:15:03.146Z,26.23
2022-08-05T23:17:32.860Z,26.10
2022-08-05T23:20:15.497Z,25.99
2022-08-05T23:22:44.020Z,25.63
2022-08-05T23:25:17.673Z,25.77
2022-08-05T23:28:01.766Z,25.79
2022-08-05T23:30:29.245Z,25.60
2022-08-05T23:32:58.088Z,25.42
2022-08-05T23:35:28.601Z,25.40
2022-08-05T23:38:01.319Z,25.35
2022-08-05T23:40:28.138Z,25.20
2022-08-05T23:42:54.968Z,25.29
2022-08-05T23:45:23.749Z,25.41
2022-08-05T23:47:53.903Z,25.40
2022-08-05T23:50:26.608Z,25.42
2022-08-05T23:52:55.400Z,25.48
2022-08-05T23:55:22.677Z,25.39
2022-08-05T23:57:58.088Z,25.26
